Terminal Aerodrome Forecast
Issued by NWS

Home | Current Version | Previous Version | Text Only | Print | Product List | Glossary On
Versions: 1 2 3 4 5 6 7 8 9 10 11 12 13 14 15 16 17 18 19 20
000
FTUS43 KILX 130543
TAFBMI
TAF
KBMI 130543Z 1306/1406 22006KT P6SM SCT050 OVC070
     FM131000 19009KT P6SM SCT080 WS015/23045KT
     FM131300 19015KT P6SM SCT200 WS015/23045KT
     FM131500 21018G32KT P6SM BKN200
     FM131800 24017G28KT P6SM VCSH BKN080
     FM132000 27018G31KT P6SM VCSH BKN035
     FM132200 29020G33KT P6SM VCSH BKN015
     FM140000 30019G33KT P6SM BKN025
     FM140500 33012KT P6SM BKN035=

USA.gov is the U.S. government's official web portal to all federal, state and local government web resources and services.